Time;durP1;ratioP1;P1;durP2;ratioP2;P2;SDS_P1;SDS_P2;PMS_P1;PMS_P2;Temp;Humidity;BMP_temperature;BMP_pressure;BME280_temperature;BME280_humidity;BME280_pressure;Samples;Min_cycle;Max_cycle;Signal;HPM_P1;HPM_P2
2024/02/08 00:01:41;;;;;;;;;;;;;;;;;;5067162;28;19928;-83
2024/02/08 00:04:08;;;;;;;;;;;;;;;;;;5080354;28;19924;-84
2024/02/08 00:06:34;;;;;;;;;;;;;;;;;;5082577;28;20004;-81
2024/02/08 00:09:01;;;;;;;;;;;;;;;;;;5065973;28;20353;-84
2024/02/08 00:11:28;;;;;;;;;;;;;;;;;;5064656;28;19931;-83
2024/02/08 00:13:55;;;;;;;;;;;;;;;;;;5067555;28;19976;-83
2024/02/08 00:16:21;;;;;;;;;;;;;;;;;;5067062;28;19928;-82
2024/02/08 00:18:48;;;;;;;;;;;;;;;;;;5061284;28;19929;-84
2024/02/08 00:21:15;;;;;;;;;;;;;;;;;;5085602;28;19928;-83
2024/02/08 00:23:41;;;;;;;;;;;;;;;;;;5073367;28;19924;-83
2024/02/08 00:26:08;;;;;;;;;;;;;;;;;;5079510;28;19990;-84
2024/02/08 00:28:34;;;;;;;;;;;;;;;;;;5086913;28;19924;-83
2024/02/08 00:31:01;;;;;;;;;;;;;;;;;;5065468;28;19924;-83
2024/02/08 00:33:27;;;;;;;;;;;;;;;;;;5074656;28;19928;-83
2024/02/08 00:35:54;;;;;;;;;;;;;;;;;;5069045;28;19978;-82
2024/02/08 00:38:20;;;;;;;;;;;;;;;;;;5075225;28;19925;-84
2024/02/08 00:40:47;;;;;;;;;;;;;;;;;;5075452;28;19971;-83
2024/02/08 00:43:13;;;;;;;;;;;;;;;;;;5075054;28;19937;-82
2024/02/08 00:45:40;;;;;;;;;;;;;;;;;;5081225;28;19928;-84
2024/02/08 00:48:06;;;;;;;;;;;;;;;;;;5077451;28;19928;-82
2024/02/08 00:50:34;;;;;;;;;;;;;;;;;;5073694;28;19931;-82
2024/02/08 00:53:03;;;;;;;;;;;;;;;;;;5081380;28;19925;-83
2024/02/08 00:55:30;;;;;;;;;;;;;;;;;;5060295;28;19962;-82
2024/02/08 00:57:57;;;;;;;;;;;;;;;;;;5063687;28;20006;-82
2024/02/08 01:00:23;;;;;;;;;;;;;;;;;;5075586;28;19928;-84
2024/02/08 01:02:50;;;;;;;;;;;;;;;;;;5085187;28;19964;-82
2024/02/08 01:05:20;;;;;;;;;;;;;;;;;;5078707;28;19924;-81
2024/02/08 01:07:47;;;;;;;;;;;;;;;;;;5075695;28;20304;-82
2024/02/08 01:10:14;;;;;;;;;;;;;;;;;;5057980;28;19931;-82
2024/02/08 01:12:42;;;;;;;;;;;;;;;;;;5081094;28;19968;-83
2024/02/08 01:15:14;;;;;;;;;;;;;;;;;;5061672;28;20392;-83
2024/02/08 01:17:40;;;;;;;;;;;;;;;;;;5062994;28;19977;-84
2024/02/08 01:20:07;;;;;;;;;;;;;;;;;;5060121;28;19929;-85
2024/02/08 01:22:34;;;;;;;;;;;;;;;;;;5064243;28;19970;-82
2024/02/08 01:25:01;;;;;;;;;;;;;;;;;;5061354;28;19931;-83
2024/02/08 01:27:29;;;;;;;;;;;;;;;;;;5076838;28;19955;-82
2024/02/08 01:29:59;;;;;;;;;;;;;;;;;;5049464;28;19929;-84
2024/02/08 01:32:27;;;;;;;;;;;;;;;;;;5081559;28;20359;-84
2024/02/08 01:34:54;;;;;;;;;;;;;;;;;;5072218;28;19931;-83
2024/02/08 01:37:21;;;;;;;;;;;;;;;;;;5050866;28;19954;-82
2024/02/08 01:39:47;;;;;;;;;;;;;;;;;;5080255;28;19925;-83
2024/02/08 01:42:14;;;;;;;;;;;;;;;;;;5077032;28;19932;-84
2024/02/08 01:44:41;;;;;;;;;;;;;;;;;;5077366;28;19924;-83
2024/02/08 01:47:07;;;;;;;;;;;;;;;;;;5078922;28;19974;-82
2024/02/08 01:49:34;;;;;;;;;;;;;;;;;;5066785;28;20299;-83
2024/02/08 01:52:00;;;;;;;;;;;;;;;;;;5079601;28;20270;-82
2024/02/08 01:54:27;;;;;;;;;;;;;;;;;;5076565;28;19936;-84
2024/02/08 01:56:54;;;;;;;;;;;;;;;;;;5081082;28;19982;-84
2024/02/08 01:59:21;;;;;;;;;;;;;;;;;;5065021;28;20281;-83
2024/02/08 02:01:50;;;;;;;;;;;;;;;;;;5081443;28;20012;-84
2024/02/08 02:04:16;;;;;;;;;;;;;;;;;;5075698;28;19931;-84
2024/02/08 02:06:46;;;;;;;;;;;;;;;;;;5086621;28;19935;-83
2024/02/08 02:09:22;;;;;;;;;;;;;;;;;;5059646;28;20373;-84
2024/02/08 02:11:49;;;;;;;;;;;;;;;;;;5078173;28;19932;-82
2024/02/08 02:14:16;;;;;;;;;;;;;;;;;;5061004;28;20416;-83
2024/02/08 02:16:43;;;;;;;;;;;;;;;;;;5084523;28;20377;-84
2024/02/08 02:19:10;;;;;;;;;;;;;;;;;;5065259;28;19928;-85
2024/02/08 02:21:37;;;;;;;;;;;;;;;;;;5077632;28;20411;-82
2024/02/08 02:24:03;;;;;;;;;;;;;;;;;;5075691;28;19960;-85
2024/02/08 02:26:32;;;;;;;;;;;;;;;;;;5063089;28;19932;-83
2024/02/08 02:28:59;;;;;;;;;;;;;;;;;;5070685;28;19960;-83
2024/02/08 02:31:27;;;;;;;;;;;;;;;;;;5069888;28;20453;-82
2024/02/08 02:33:53;;;;;;;;;;;;;;;;;;5073331;28;19967;-84
2024/02/08 02:36:21;;;;;;;;;;;;;;;;;;5078300;28;19963;-83
2024/02/08 02:38:51;;;;;;;;;;;;;;;;;;5054124;28;19925;-83
2024/02/08 02:41:18;;;;;;;;;;;;;;;;;;5077158;28;19932;-84
2024/02/08 02:43:45;;;;;;;;;;;;;;;;;;5068200;28;19924;-83
2024/02/08 02:46:11;;;;;;;;;;;;;;;;;;5060219;28;20012;-83
2024/02/08 02:48:41;;;;;;;;;;;;;;;;;;5073027;28;20347;-84
2024/02/08 02:51:11;;;;;;;;;;;;;;;;;;5080527;28;19924;-82
2024/02/08 02:53:39;;;;;;;;;;;;;;;;;;5076506;28;19940;-83
2024/02/08 02:56:06;;;;;;;;;;;;;;;;;;5071199;28;19936;-83
2024/02/08 02:58:35;;;;;;;;;;;;;;;;;;5057741;28;19966;-83
2024/02/08 03:01:06;;;;;;;;;;;;;;;;;;5076274;28;20028;-83
2024/02/08 03:03:40;;;;;;;;;;;;;;;;;;5060146;28;19970;-83
2024/02/08 03:06:13;;;;;;;;;;;;;;;;;;5069467;28;20019;-84
2024/02/08 03:08:42;;;;;;;;;;;;;;;;;;5079197;28;19924;-83
2024/02/08 03:11:10;;;;;;;;;;;;;;;;;;5076535;28;19939;-84
2024/02/08 03:13:38;;;;;;;;;;;;;;;;;;5067559;28;19931;-83
2024/02/08 03:16:05;;;;;;;;;;;;;;;;;;5058926;28;19928;-82
2024/02/08 03:18:32;;;;;;;;;;;;;;;;;;5083272;28;19928;-83
2024/02/08 03:21:01;;;;;;;;;;;;;;;;;;5080144;28;19935;-84
2024/02/08 03:23:27;;;;;;;;;;;;;;;;;;5080292;28;19970;-82
2024/02/08 03:25:56;;;;;;;;;;;;;;;;;;5071576;28;20383;-83
2024/02/08 03:28:23;;;;;;;;;;;;;;;;;;5080937;28;20007;-83
2024/02/08 03:30:52;;;;;;;;;;;;;;;;;;5069894;28;20014;-83
2024/02/08 03:33:18;;;;;;;;;;;;;;;;;;5063667;28;20013;-80
2024/02/08 03:35:53;;;;;;;;;;;;;;;;;;5085033;28;19928;-83
2024/02/08 03:38:20;;;;;;;;;;;;;;;;;;5074472;28;19936;-83
2024/02/08 03:40:49;;;;;;;;;;;;;;;;;;5079443;28;19925;-81
2024/02/08 03:43:15;;;;;;;;;;;;;;;;;;5064001;28;20403;-83
2024/02/08 03:45:42;;;;;;;;;;;;;;;;;;5083833;28;19924;-83
2024/02/08 03:48:10;;;;;;;;;;;;;;;;;;5080146;28;19964;-83
2024/02/08 03:50:37;;;;;;;;;;;;;;;;;;5070496;28;20350;-83
2024/02/08 03:53:12;;;;;;;;;;;;;;;;;;5068569;28;19924;-82
2024/02/08 03:55:43;;;;;;;;;;;;;;;;;;5079958;28;19931;-83
2024/02/08 03:58:10;;;;;;;;;;;;;;;;;;5084199;28;19933;-82
2024/02/08 04:00:42;;;;;;;;;;;;;;;;;;5085622;28;19929;-83
2024/02/08 04:03:14;;;;;;;;;;;;;;;;;;5084611;28;20282;-82
2024/02/08 04:54:47;;;;;;;;;;;;;;;;;;5073127;28;19955;-83
2024/02/08 04:57:17;;;;;;;;;;;;;;;;;;5081194;28;20019;-82
2024/02/08 04:59:44;;;;;;;;;;;;;;;;;;5068812;28;20113;-82
2024/02/08 05:02:13;;;;;;;;;;;;;;;;;;5083480;28;20343;-82
2024/02/08 05:04:42;;;;;;;;;;;;;;;;;;5079444;28;20702;-82
2024/02/08 05:07:10;;;;;;;;;;;;;;;;;;5076763;28;19933;-83
2024/02/08 05:09:39;;;;;;;;;;;;;;;;;;5078101;28;19928;-82
2024/02/08 05:12:07;;;;;;;;;;;;;;;;;;5085776;28;20015;-82
2024/02/08 05:14:38;;;;;;;;;;;;;;;;;;5078874;28;19959;-81
2024/02/08 05:17:08;;;;;;;;;;;;;;;;;;5077346;28;19960;-82
2024/02/08 05:19:35;;;;;;;;;;;;;;;;;;5081562;28;20328;-82
2024/02/08 05:22:03;;;;;;;;;;;;;;;;;;5060591;28;19928;-82
2024/02/08 05:24:31;;;;;;;;;;;;;;;;;;5063320;28;19932;-83
2024/02/08 05:26:59;;;;;;;;;;;;;;;;;;5074798;28;19925;-83
2024/02/08 05:29:25;;;;;;;;;;;;;;;;;;5078220;28;19924;-81
2024/02/08 05:31:52;;;;;;;;;;;;;;;;;;5075438;28;19970;-83
2024/02/08 05:34:18;;;;;;;;;;;;;;;;;;5079519;28;19989;-82
2024/02/08 05:36:46;;;;;;;;;;;;;;;;;;5076347;28;19924;-83
2024/02/08 05:39:13;;;;;;;;;;;;;;;;;;5086987;28;19932;-82
2024/02/08 05:41:44;;;;;;;;;;;;;;;;;;5077106;28;19997;-83
2024/02/08 05:44:12;;;;;;;;;;;;;;;;;;5083462;28;19928;-82
2024/02/08 05:46:39;;;;;;;;;;;;;;;;;;5082228;28;19928;-81
2024/02/08 05:49:13;;;;;;;;;;;;;;;;;;5080467;28;20107;-81
2024/02/08 05:51:46;;;;;;;;;;;;;;;;;;5078220;28;19950;-82
2024/02/08 05:54:20;;;;;;;;;;;;;;;;;;5076017;28;19974;-83
2024/02/08 05:56:47;;;;;;;;;;;;;;;;;;5082569;28;20434;-83
2024/02/08 05:59:18;;;;;;;;;;;;;;;;;;5059739;28;19950;-82
2024/02/08 06:01:46;;;;;;;;;;;;;;;;;;5075442;28;20415;-84
2024/02/08 06:04:24;;;;;;;;;;;;;;;;;;5071531;28;19933;-84
2024/02/08 06:07:05;;;;;;;;;;;;;;;;;;5053499;28;19929;-84
2024/02/08 06:09:52;;;;;;;;;;;;;;;;;;5070700;28;20373;-83
2024/02/08 06:12:42;;;;;;;;;;;;;;;;;;5063091;28;19924;-84
2024/02/08 06:15:32;;;;;;;;;;;;;;;;;;5082326;28;20019;-84
2024/02/08 06:18:06;;;;;;;;;;;;;;;;;;5068858;28;20023;-83
2024/02/08 06:20:35;;;;;;;;;;;;;;;;;;5081908;28;19925;-84
2024/02/08 06:24:00;;;;;;;;;;;;;;;;;;5074739;28;20694;-85
2024/02/08 06:28:52;;;;;;;;;;;;;;;;;;5083027;28;19947;-83
2024/02/08 06:31:20;;;;;;;;;;;;;;;;;;5082592;28;19925;-85
2024/02/08 06:36:40;;;;;;;;;;;;;;;;;;5081537;28;19925;-85
2024/02/08 06:39:33;;;;;;;;;;;;;;;;;;5074367;28;19977;-85
2024/02/08 06:42:29;;;;;;;;;;;;;;;;;;5061341;28;19928;-83
2024/02/08 06:48:14;;;;;;;;;;;;;;;;;;5070366;28;19924;-85
2024/02/08 07:38:07;;;;;;;;;;;;;;;;;;5078302;28;19937;-78
2024/02/08 07:40:35;;;;;;;;;;;;;;;;;;5082506;28;19924;-78
2024/02/08 07:45:41;;;;;;;;;;;;;;;;;;5085210;28;19924;-78
2024/02/08 07:48:12;;;;;;;;;;;;;;;;;;5081760;28;19925;-81
2024/02/08 07:50:45;;;;;;;;;;;;;;;;;;5060810;28;19925;-81
2024/02/08 07:53:19;;;;;;;;;;;;;;;;;;5056505;28;20409;-82
2024/02/08 07:55:58;;;;;;;;;;;;;;;;;;5065470;28;19925;-80
2024/02/08 07:58:27;;;;;;;;;;;;;;;;;;5081606;28;19947;-80
2024/02/08 08:00:56;;;;;;;;;;;;;;;;;;5063385;28;19924;-80
2024/02/08 08:03:23;;;;;;;;;;;;;;;;;;5064379;28;20401;-79
2024/02/08 08:05:56;;;;;;;;;;;;;;;;;;5084068;28;19928;-80
2024/02/08 08:08:28;;;;;;;;;;;;;;;;;;5075730;28;20015;-80
2024/02/08 08:11:02;;;;;;;;;;;;;;;;;;5073235;28;20289;-81
2024/02/08 08:18:57;;;;;;;;;;;;;;;;;;5080095;28;19928;-78
2024/02/08 08:21:25;;;;;;;;;;;;;;;;;;5075258;28;19931;-79
2024/02/08 08:23:59;;;;;;;;;;;;;;;;;;5076053;28;20341;-80
2024/02/08 08:26:37;;;;;;;;;;;;;;;;;;5078563;28;19933;-79
2024/02/08 08:29:12;;;;;;;;;;;;;;;;;;5079376;28;20452;-80
2024/02/08 08:31:51;;;;;;;;;;;;;;;;;;5078277;28;19935;-79
2024/02/08 08:36:58;;;;;;;;;;;;;;;;;;5075077;28;20292;-81
2024/02/08 08:42:17;;;;;;;;;;;;;;;;;;5081053;28;19924;-81
2024/02/08 08:44:48;;;;;;;;;;;;;;;;;;5073904;28;19982;-78
2024/02/08 08:47:15;;;;;;;;;;;;;;;;;;5066184;28;20381;-80
2024/02/08 08:49:42;;;;;;;;;;;;;;;;;;5064698;28;19924;-79
2024/02/08 08:52:09;;;;;;;;;;;;;;;;;;5082602;28;20023;-81
2024/02/08 08:54:42;;;;;;;;;;;;;;;;;;5080900;28;19928;-80
2024/02/08 08:57:12;;;;;;;;;;;;;;;;;;5081768;28;19934;-79
2024/02/08 08:59:42;;;;;;;;;;;;;;;;;;5083825;28;20278;-79
2024/02/08 09:02:08;;;;;;;;;;;;;;;;;;5077512;28;19924;-80
2024/02/08 09:04:35;;;;;;;;;;;;;;;;;;5076522;28;20634;-79
2024/02/08 09:07:10;;;;;;;;;;;;;;;;;;5075541;28;19971;-80
2024/02/08 09:12:28;;;;;;;;;;;;;;;;;;5075944;28;20358;-81
2024/02/08 09:14:54;;;;;;;;;;;;;;;;;;5060720;28;19982;-80
2024/02/08 09:17:25;;;;;;;;;;;;;;;;;;5077675;28;19925;-80
2024/02/08 09:19:52;;;;;;;;;;;;;;;;;;5081080;28;19928;-80
2024/02/08 09:22:19;;;;;;;;;;;;;;;;;;5079441;28;19935;-80
2024/02/08 09:24:45;;;;;;;;;;;;;;;;;;5077032;28;20011;-79
2024/02/08 09:27:15;;;;;;;;;;;;;;;;;;5081885;28;19928;-81
2024/02/08 09:29:42;;;;;;;;;;;;;;;;;;5083617;28;19974;-80
2024/02/08 09:32:15;;;;;;;;;;;;;;;;;;5077119;28;19990;-83
2024/02/08 09:34:43;;;;;;;;;;;;;;;;;;5082386;28;19978;-81
2024/02/08 09:37:13;;;;;;;;;;;;;;;;;;5077171;28;19924;-83
2024/02/08 09:39:58;;;;;;;;;;;;;;;;;;5077651;28;19979;-83
2024/02/08 09:42:29;;;;;;;;;;;;;;;;;;5079559;28;19925;-81
2024/02/08 09:47:44;;;;;;;;;;;;;;;;;;5074541;28;20323;-81
2024/02/08 09:50:21;;;;;;;;;;;;;;;;;;5065186;28;19932;-81
2024/02/08 09:52:56;;;;;;;;;;;;;;;;;;5076959;28;19978;-82
2024/02/08 09:55:32;;;;;;;;;;;;;;;;;;5077455;28;19975;-82
2024/02/08 09:58:04;;;;;;;;;;;;;;;;;;5074066;28;20339;-81
2024/02/08 10:00:44;;;;;;;;;;;;;;;;;;5057782;28;20040;-82
2024/02/08 10:03:31;;;;;;;;;;;;;;;;;;5078492;28;19928;-83
2024/02/08 10:06:00;;;;;;;;;;;;;;;;;;5075133;28;19925;-83
2024/02/08 10:08:28;;;;;;;;;;;;;;;;;;5079849;28;19924;-84
2024/02/08 10:16:47;;;;;;;;;;;;;;;;;;5074685;28;20373;-82
2024/02/08 10:19:35;;;;;;;;;;;;;;;;;;5076713;28;19928;-82
2024/02/08 10:22:18;;;;;;;;;;;;;;;;;;5069771;28;19925;-81
2024/02/08 10:27:19;;;;;;;;;;;;;;;;;;5062312;28;19928;-82
2024/02/08 10:29:48;;;;;;;;;;;;;;;;;;5067266;28;19925;-77
2024/02/08 10:32:14;;;;;;;;;;;;;;;;;;5078057;28;19928;-78
2024/02/08 10:34:43;;;;;;;;;;;;;;;;;;5073210;28;19924;-79
2024/02/08 10:37:11;;;;;;;;;;;;;;;;;;5077591;28;19924;-79
2024/02/08 10:39:41;;;;;;;;;;;;;;;;;;5070431;28;19929;-80
2024/02/08 10:42:13;;;;;;;;;;;;;;;;;;5073117;28;19979;-81
2024/02/08 10:44:44;;;;;;;;;;;;;;;;;;5074260;28;19924;-79
2024/02/08 10:47:10;;;;;;;;;;;;;;;;;;5075842;28;20407;-79
2024/02/08 10:49:44;;;;;;;;;;;;;;;;;;5077497;28;19924;-81
2024/02/08 10:52:12;;;;;;;;;;;;;;;;;;5078546;28;20011;-79
2024/02/08 10:54:48;;;;;;;;;;;;;;;;;;5081615;28;19924;-81
2024/02/08 11:03:33;;;;;;;;;;;;;;;;;;5058181;28;20347;-80
2024/02/08 11:06:00;;;;;;;;;;;;;;;;;;5080771;28;20404;-79
2024/02/08 11:08:50;;;;;;;;;;;;;;;;;;5073056;28;19932;-82
2024/02/08 11:11:20;;;;;;;;;;;;;;;;;;5080827;28;19932;-79
2024/02/08 11:13:52;;;;;;;;;;;;;;;;;;5074977;28;19928;-81
2024/02/08 11:16:19;;;;;;;;;;;;;;;;;;5081339;28;20397;-81
2024/02/08 11:18:47;;;;;;;;;;;;;;;;;;5081195;28;19931;-78
2024/02/08 11:21:14;;;;;;;;;;;;;;;;;;5077018;28;19959;-79
2024/02/08 11:23:49;;;;;;;;;;;;;;;;;;5084640;28;19952;-80
2024/02/08 11:26:18;;;;;;;;;;;;;;;;;;5084717;28;20381;-81
2024/02/08 11:28:47;;;;;;;;;;;;;;;;;;5070599;28;19929;-82
2024/02/08 11:31:16;;;;;;;;;;;;;;;;;;5077639;28;19928;-80
2024/02/08 11:33:43;;;;;;;;;;;;;;;;;;5075601;28;19924;-81
2024/02/08 11:36:12;;;;;;;;;;;;;;;;;;5085004;28;19978;-82
2024/02/08 11:38:45;;;;;;;;;;;;;;;;;;5088628;28;19947;-81
2024/02/08 11:41:12;;;;;;;;;;;;;;;;;;5076524;28;19930;-82
2024/02/08 11:43:47;;;;;;;;;;;;;;;;;;5064998;28;20579;-81
2024/02/08 11:46:18;;;;;;;;;;;;;;;;;;5075608;28;19968;-81
2024/02/08 11:48:46;;;;;;;;;;;;;;;;;;5082314;28;19928;-81
2024/02/08 11:51:13;;;;;;;;;;;;;;;;;;5078818;28;19932;-80
2024/02/08 11:53:39;;;;;;;;;;;;;;;;;;5083688;28;19924;-80
2024/02/08 11:56:09;;;;;;;;;;;;;;;;;;5081847;28;20019;-81
2024/02/08 11:58:35;;;;;;;;;;;;;;;;;;5081551;28;19932;-80
2024/02/08 12:01:03;;;;;;;;;;;;;;;;;;5077486;28;19983;-78
2024/02/08 12:03:30;;;;;;;;;;;;;;;;;;5077568;28;20381;-81
2024/02/08 12:05:57;;;;;;;;;;;;;;;;;;5084261;28;19931;-79
2024/02/08 12:08:24;;;;;;;;;;;;;;;;;;5081601;28;19928;-80
2024/02/08 12:11:03;;;;;;;;;;;;;;;;;;5081524;28;19925;-80
2024/02/08 12:13:38;;;;;;;;;;;;;;;;;;5082345;28;20456;-80
2024/02/08 12:16:05;;;;;;;;;;;;;;;;;;5074461;28;19929;-80
2024/02/08 12:18:31;;;;;;;;;;;;;;;;;;5080096;28;19924;-79
2024/02/08 12:21:01;;;;;;;;;;;;;;;;;;5070091;28;19928;-80
2024/02/08 12:23:31;;;;;;;;;;;;;;;;;;5085123;28;19966;-80
2024/02/08 12:25:58;;;;;;;;;;;;;;;;;;5073112;28;19925;-78
2024/02/08 12:28:24;;;;;;;;;;;;;;;;;;5074949;28;20143;-79
2024/02/08 12:30:51;;;;;;;;;;;;;;;;;;5077533;28;19929;-80
2024/02/08 12:33:21;;;;;;;;;;;;;;;;;;5075667;28;19974;-80
2024/02/08 12:35:47;;;;;;;;;;;;;;;;;;5078118;28;19929;-79
2024/02/08 12:38:16;;;;;;;;;;;;;;;;;;5087820;28;20014;-79
2024/02/08 12:40:44;;;;;;;;;;;;;;;;;;5082065;28;19931;-80
2024/02/08 12:43:10;;;;;;;;;;;;;;;;;;5074114;28;19931;-79
2024/02/08 12:45:38;;;;;;;;;;;;;;;;;;5077892;28;20438;-80
2024/02/08 12:48:05;;;;;;;;;;;;;;;;;;5077146;28;20384;-79
2024/02/08 12:50:35;;;;;;;;;;;;;;;;;;5080479;28;19993;-80
2024/02/08 12:53:01;;;;;;;;;;;;;;;;;;5057777;28;19924;-80
2024/02/08 12:55:30;;;;;;;;;;;;;;;;;;5083021;28;19924;-79
2024/02/08 12:57:57;;;;;;;;;;;;;;;;;;5076704;28;19924;-79
2024/02/08 13:00:24;;;;;;;;;;;;;;;;;;5082397;28;20400;-80
2024/02/08 13:02:54;;;;;;;;;;;;;;;;;;5084611;28;20415;-79
2024/02/08 13:05:22;;;;;;;;;;;;;;;;;;5066299;28;19986;-78
2024/02/08 13:07:48;;;;;;;;;;;;;;;;;;5077018;28;19933;-81
2024/02/08 13:10:15;;;;;;;;;;;;;;;;;;5086735;28;20504;-82
2024/02/08 13:12:42;;;;;;;;;;;;;;;;;;5064979;28;20047;-78
2024/02/08 13:15:10;;;;;;;;;;;;;;;;;;5082472;28;19924;-78
2024/02/08 13:17:37;;;;;;;;;;;;;;;;;;5085871;28;19928;-79
2024/02/08 13:20:11;;;;;;;;;;;;;;;;;;5080519;28;20284;-79
2024/02/08 13:22:38;;;;;;;;;;;;;;;;;;5077942;28;20358;-78
2024/02/08 13:25:12;;;;;;;;;;;;;;;;;;5076922;28;20404;-80
2024/02/08 13:27:39;;;;;;;;;;;;;;;;;;5073982;28;20033;-80
2024/02/08 13:30:17;;;;;;;;;;;;;;;;;;5070116;28;20400;-79
2024/02/08 13:32:44;;;;;;;;;;;;;;;;;;5077773;28;19925;-79
2024/02/08 13:35:18;;;;;;;;;;;;;;;;;;5071864;28;19928;-80
2024/02/08 13:37:46;;;;;;;;;;;;;;;;;;5076975;28;19924;-79
2024/02/08 13:40:12;;;;;;;;;;;;;;;;;;5076712;28;19945;-79
2024/02/08 13:42:39;;;;;;;;;;;;;;;;;;5082893;28;19986;-80
2024/02/08 13:45:16;;;;;;;;;;;;;;;;;;5072634;28;19924;-80
2024/02/08 13:47:50;;;;;;;;;;;;;;;;;;5073968;28;19931;-80
2024/02/08 13:50:16;;;;;;;;;;;;;;;;;;5076715;28;19924;-78
2024/02/08 13:52:43;;;;;;;;;;;;;;;;;;5073859;28;19989;-79
2024/02/08 13:55:17;;;;;;;;;;;;;;;;;;5074393;28;19929;-79
2024/02/08 13:57:46;;;;;;;;;;;;;;;;;;5079346;28;19928;-80
2024/02/08 14:00:20;;;;;;;;;;;;;;;;;;5075099;28;20357;-80
2024/02/08 14:02:49;;;;;;;;;;;;;;;;;;5075900;28;19991;-79
2024/02/08 14:05:19;;;;;;;;;;;;;;;;;;5078691;28;19924;-79
2024/02/08 14:07:47;;;;;;;;;;;;;;;;;;5076978;28;19935;-80
2024/02/08 14:10:14;;;;;;;;;;;;;;;;;;5077963;28;19954;-81
2024/02/08 14:12:45;;;;;;;;;;;;;;;;;;5080234;28;19935;-81
2024/02/08 14:15:11;;;;;;;;;;;;;;;;;;5078189;28;19928;-82
2024/02/08 14:17:41;;;;;;;;;;;;;;;;;;5078243;28;19974;-81
2024/02/08 14:20:30;;;;;;;;;;;;;;;;;;5076212;28;19936;-81
2024/02/08 14:22:59;;;;;;;;;;;;;;;;;;5075043;28;20019;-80
2024/02/08 14:25:37;;;;;;;;;;;;;;;;;;5081662;28;19978;-80
2024/02/08 14:28:03;;;;;;;;;;;;;;;;;;5073167;28;19924;-79
2024/02/08 14:30:34;;;;;;;;;;;;;;;;;;5065277;28;19924;-82
2024/02/08 14:33:00;;;;;;;;;;;;;;;;;;5070864;28;19928;-80
2024/02/08 14:35:31;;;;;;;;;;;;;;;;;;5057293;28;19947;-80
2024/02/08 14:37:58;;;;;;;;;;;;;;;;;;5079142;28;19936;-79
2024/02/08 14:40:27;;;;;;;;;;;;;;;;;;5076315;28;19924;-80
2024/02/08 14:42:57;;;;;;;;;;;;;;;;;;5078065;28;19924;-79
2024/02/08 14:45:25;;;;;;;;;;;;;;;;;;5079328;28;19949;-79
2024/02/08 14:47:52;;;;;;;;;;;;;;;;;;5078031;28;19924;-81
2024/02/08 14:53:05;;;;;;;;;;;;;;;;;;5077307;28;19929;-80
2024/02/08 14:55:35;;;;;;;;;;;;;;;;;;5082130;28;20010;-80
2024/02/08 14:58:02;;;;;;;;;;;;;;;;;;5078073;28;19931;-80
2024/02/08 15:00:49;;;;;;;;;;;;;;;;;;5083845;28;19924;-80
2024/02/08 15:03:27;;;;;;;;;;;;;;;;;;5079182;28;19946;-81
2024/02/08 15:06:00;;;;;;;;;;;;;;;;;;5079822;28;20086;-79
2024/02/08 15:13:49;;;;;;;;;;;;;;;;;;5071723;28;19924;-79
2024/02/08 15:16:21;;;;;;;;;;;;;;;;;;5017883;28;1848026;-80
2024/02/08 15:18:48;;;;;;;;;;;;;;;;;;5066068;28;19955;-80
2024/02/08 15:21:15;;;;;;;;;;;;;;;;;;5056363;28;19963;-80
2024/02/08 15:24:19;;;;;;;;;;;;;;;;;;5074410;28;19924;-79
2024/02/08 15:26:49;;;;;;;;;;;;;;;;;;5075836;28;19982;-79
2024/02/08 15:29:30;;;;;;;;;;;;;;;;;;5071443;28;19947;-80
2024/02/08 15:31:57;;;;;;;;;;;;;;;;;;5076689;28;19928;-79
2024/02/08 15:37:20;;;;;;;;;;;;;;;;;;5075980;28;20445;-80
2024/02/08 15:42:31;;;;;;;;;;;;;;;;;;5076482;28;20384;-78
2024/02/08 15:44:58;;;;;;;;;;;;;;;;;;5065254;28;20388;-81
2024/02/08 15:47:28;;;;;;;;;;;;;;;;;;5080319;28;20304;-80
2024/02/08 15:49:55;;;;;;;;;;;;;;;;;;5069347;28;20450;-79
2024/02/08 15:52:22;;;;;;;;;;;;;;;;;;5079238;28;20346;-79
2024/02/08 15:54:55;;;;;;;;;;;;;;;;;;5072648;28;19928;-80
2024/02/08 15:57:25;;;;;;;;;;;;;;;;;;5056511;28;20421;-80
2024/02/08 15:59:59;;;;;;;;;;;;;;;;;;5073760;28;19928;-80
2024/02/08 16:02:26;;;;;;;;;;;;;;;;;;5069182;28;19924;-80
2024/02/08 16:04:52;;;;;;;;;;;;;;;;;;5078729;28;19928;-80
2024/02/08 16:07:27;;;;;;;;;;;;;;;;;;5072536;28;19928;-80
2024/02/08 16:10:00;;;;;;;;;;;;;;;;;;5074298;28;19929;-80
2024/02/08 16:14:59;;;;;;;;;;;;;;;;;;5076318;28;19934;-79
2024/02/08 16:20:08;;;;;;;;;;;;;;;;;;5075422;28;20454;-78
2024/02/08 16:22:55;;;;;;;;;;;;;;;;;;5071230;28;19928;-80
2024/02/08 16:28:29;;;;;;;;;;;;;;;;;;5079973;28;20423;-79
2024/02/08 16:33:33;;;;;;;;;;;;;;;;;;5082698;28;19968;-78
2024/02/08 16:36:09;;;;;;;;;;;;;;;;;;5078385;28;20050;-81
2024/02/08 16:38:37;;;;;;;;;;;;;;;;;;5080217;28;20442;-80
2024/02/08 16:41:06;;;;;;;;;;;;;;;;;;5088400;28;20329;-78
2024/02/08 16:43:43;;;;;;;;;;;;;;;;;;5084543;28;19924;-80
2024/02/08 16:46:11;;;;;;;;;;;;;;;;;;5085250;28;19924;-80
2024/02/08 16:48:44;;;;;;;;;;;;;;;;;;5082209;28;19924;-79
2024/02/08 16:51:16;;;;;;;;;;;;;;;;;;5077679;28;19977;-79
2024/02/08 16:53:50;;;;;;;;;;;;;;;;;;5073819;28;19936;-80
2024/02/08 16:56:21;;;;;;;;;;;;;;;;;;5081528;28;20301;-80
2024/02/08 16:58:55;;;;;;;;;;;;;;;;;;5074064;28;19939;-79
2024/02/08 17:01:27;;;;;;;;;;;;;;;;;;5075926;28;19925;-79
2024/02/08 17:04:00;;;;;;;;;;;;;;;;;;5069928;28;19932;-78
2024/02/08 17:06:43;;;;;;;;;;;;;;;;;;5078037;28;19924;-79
2024/02/08 17:11:44;;;;;;;;;;;;;;;;;;5079410;28;19963;-80
2024/02/08 17:14:46;;;;;;;;;;;;;;;;;;5080373;28;19932;-79
2024/02/08 17:17:13;;;;;;;;;;;;;;;;;;5076039;28;20015;-79
2024/02/08 17:19:46;;;;;;;;;;;;;;;;;;5075185;28;19932;-79
2024/02/08 17:22:40;;;;;;;;;;;;;;;;;;5070174;28;19925;-80
2024/02/08 17:28:08;;;;;;;;;;;;;;;;;;5082738;28;20311;-79
2024/02/08 17:33:20;;;;;;;;;;;;;;;;;;5079825;28;19956;-80
2024/02/08 17:35:47;;;;;;;;;;;;;;;;;;5078436;28;20400;-78
2024/02/08 17:38:19;;;;;;;;;;;;;;;;;;5065258;28;19928;-77
2024/02/08 17:40:46;;;;;;;;;;;;;;;;;;5069569;28;19932;-79
2024/02/08 17:43:17;;;;;;;;;;;;;;;;;;5078294;28;19969;-79
2024/02/08 17:45:55;;;;;;;;;;;;;;;;;;5076761;28;20372;-81
2024/02/08 17:48:30;;;;;;;;;;;;;;;;;;5080448;28;19924;-78
2024/02/08 17:50:59;;;;;;;;;;;;;;;;;;5070108;28;20002;-80
2024/02/08 17:53:27;;;;;;;;;;;;;;;;;;5081400;28;20368;-77
2024/02/08 17:55:54;;;;;;;;;;;;;;;;;;5075345;28;19924;-79
2024/02/08 17:58:24;;;;;;;;;;;;;;;;;;5080584;28;19963;-79
2024/02/08 18:00:51;;;;;;;;;;;;;;;;;;5077496;28;19928;-78
2024/02/08 18:03:25;;;;;;;;;;;;;;;;;;5074666;28;20317;-78
2024/02/08 18:05:55;;;;;;;;;;;;;;;;;;5078496;28;19924;-77
2024/02/08 18:08:23;;;;;;;;;;;;;;;;;;5059239;28;19937;-77
2024/02/08 18:10:50;;;;;;;;;;;;;;;;;;5072437;28;20296;-77
2024/02/08 18:13:17;;;;;;;;;;;;;;;;;;5076824;28;20039;-76
2024/02/08 18:15:53;;;;;;;;;;;;;;;;;;5079100;28;19925;-77
2024/02/08 18:18:22;;;;;;;;;;;;;;;;;;5075441;28;19925;-76
2024/02/08 18:20:52;;;;;;;;;;;;;;;;;;5079183;28;20335;-77
2024/02/08 18:23:19;;;;;;;;;;;;;;;;;;5064380;28;19994;-77
2024/02/08 18:25:45;;;;;;;;;;;;;;;;;;5083670;28;19932;-76
2024/02/08 18:28:13;;;;;;;;;;;;;;;;;;5072974;28;19924;-77
2024/02/08 18:30:45;;;;;;;;;;;;;;;;;;5077260;28;20365;-78
2024/02/08 18:33:15;;;;;;;;;;;;;;;;;;5083011;28;19934;-79
2024/02/08 18:35:45;;;;;;;;;;;;;;;;;;5063649;28;19924;-77
2024/02/08 18:38:13;;;;;;;;;;;;;;;;;;5075796;28;19947;-78
2024/02/08 18:40:39;;;;;;;;;;;;;;;;;;5075814;28;19924;-77
2024/02/08 18:43:06;;;;;;;;;;;;;;;;;;5078979;28;19932;-78
2024/02/08 18:45:40;;;;;;;;;;;;;;;;;;5077305;28;19955;-78
2024/02/08 18:48:10;;;;;;;;;;;;;;;;;;5079163;28;20432;-78
2024/02/08 18:50:42;;;;;;;;;;;;;;;;;;5081380;28;20019;-78
2024/02/08 18:53:08;;;;;;;;;;;;;;;;;;5078841;28;20380;-79
2024/02/08 18:55:44;;;;;;;;;;;;;;;;;;5076710;28;19935;-77
2024/02/08 18:58:18;;;;;;;;;;;;;;;;;;5073790;28;19924;-77
2024/02/08 19:00:44;;;;;;;;;;;;;;;;;;5080779;28;19924;-80
2024/02/08 19:03:15;;;;;;;;;;;;;;;;;;5072990;28;19931;-79
2024/02/08 19:05:47;;;;;;;;;;;;;;;;;;5082367;28;19928;-80
2024/02/08 19:08:14;;;;;;;;;;;;;;;;;;5075897;28;19947;-80
2024/02/08 19:10:43;;;;;;;;;;;;;;;;;;5074129;28;20023;-80
2024/02/08 19:13:10;;;;;;;;;;;;;;;;;;5078335;28;19931;-77
2024/02/08 19:15:36;;;;;;;;;;;;;;;;;;5074295;28;19974;-80
2024/02/08 19:18:14;;;;;;;;;;;;;;;;;;5078396;28;19931;-78
2024/02/08 19:20:44;;;;;;;;;;;;;;;;;;5071667;28;19931;-79
2024/02/08 19:23:12;;;;;;;;;;;;;;;;;;5069849;28;19925;-79
2024/02/08 19:25:39;;;;;;;;;;;;;;;;;;5076891;28;19963;-79
2024/02/08 19:28:06;;;;;;;;;;;;;;;;;;5080981;28;19928;-77
2024/02/08 19:30:33;;;;;;;;;;;;;;;;;;5068181;28;19952;-78
2024/02/08 19:32:59;;;;;;;;;;;;;;;;;;5076021;28;20021;-79
2024/02/08 19:35:26;;;;;;;;;;;;;;;;;;5080447;28;20019;-78
2024/02/08 19:37:52;;;;;;;;;;;;;;;;;;5077478;28;19936;-77
2024/02/08 19:40:22;;;;;;;;;;;;;;;;;;5076402;28;20019;-79
2024/02/08 19:42:49;;;;;;;;;;;;;;;;;;5079658;28;19924;-77
2024/02/08 19:45:17;;;;;;;;;;;;;;;;;;5077869;28;19931;-78
2024/02/08 19:47:44;;;;;;;;;;;;;;;;;;5064373;28;19951;-78
2024/02/08 19:50:16;;;;;;;;;;;;;;;;;;5078217;28;19924;-77
2024/02/08 19:52:44;;;;;;;;;;;;;;;;;;5079499;28;20440;-77
2024/02/08 19:55:20;;;;;;;;;;;;;;;;;;5082196;28;19944;-77
2024/02/08 19:57:48;;;;;;;;;;;;;;;;;;5082019;28;20023;-77